createdAt,value
2019-02-21T00:02:42.481Z,21.00
2019-02-21T00:07:44.062Z,18.63
2019-02-21T00:12:45.836Z,20.53
2019-02-21T00:17:47.933Z,21.27
2019-02-21T00:22:49.463Z,20.87
2019-02-21T00:27:51.030Z,20.57
2019-02-21T00:32:52.620Z,21.97
2019-02-21T00:37:54.270Z,20.57
2019-02-21T00:42:55.863Z,21.53
2019-02-21T00:47:57.748Z,24.60
2019-02-21T00:52:59.292Z,22.10
2019-02-21T00:58:00.836Z,22.63
2019-02-21T01:03:02.478Z,24.23
2019-02-21T01:08:04.081Z,22.53
2019-02-21T01:13:05.628Z,24.37
2019-02-21T01:18:07.536Z,23.77
2019-02-21T01:23:09.103Z,21.90
2019-02-21T01:28:11.014Z,23.53
2019-02-21T01:33:12.828Z,22.80
2019-02-21T01:38:14.429Z,23.77
2019-02-21T01:43:16.026Z,23.77
2019-02-21T01:48:17.626Z,23.60
2019-02-21T01:53:19.205Z,24.13
2019-02-21T01:58:20.730Z,23.80
2019-02-21T02:03:22.715Z,24.17
2019-02-21T02:08:24.297Z,26.30
2019-02-21T02:13:25.845Z,27.07
2019-02-21T02:18:27.411Z,26.17
2019-02-21T02:23:28.935Z,28.23
2019-02-21T02:28:30.451Z,28.33
2019-02-21T02:33:32.024Z,27.37
2019-02-21T02:38:33.668Z,26.97
2019-02-21T02:43:35.226Z,27.83
2019-02-21T02:48:36.850Z,28.80
2019-02-21T02:53:38.397Z,28.10
2019-02-21T02:58:39.958Z,27.73
2019-02-21T03:03:41.521Z,28.00
2019-02-21T03:08:43.161Z,28.47
2019-02-21T03:13:45.166Z,27.03
2019-02-21T03:18:46.688Z,31.03
2019-02-21T03:23:49.341Z,30.83
2019-02-21T03:28:50.838Z,29.77
2019-02-21T03:33:52.386Z,30.57
2019-02-21T03:38:54.287Z,29.27
2019-02-21T03:43:55.789Z,31.87
2019-02-21T03:48:57.690Z,32.70
2019-02-21T03:53:59.208Z,29.33
2019-02-21T03:59:00.777Z,31.10
2019-02-21T04:04:02.330Z,30.90
2019-02-21T04:09:06.461Z,31.33
2019-02-21T04:14:08.080Z,30.00
2019-02-21T04:19:09.608Z,33.80
2019-02-21T04:24:11.250Z,31.23
2019-02-21T04:29:12.785Z,33.57
2019-02-21T04:34:14.391Z,32.57
2019-02-21T04:39:15.961Z,31.03
2019-02-21T04:44:17.510Z,33.47
2019-02-21T04:49:19.069Z,31.03
2019-02-21T04:54:20.637Z,30.57
2019-02-21T04:59:22.208Z,32.37
2019-02-21T05:04:23.739Z,31.40
2019-02-21T05:09:27.291Z,29.77
2019-02-21T05:14:29.162Z,32.00
2019-02-21T05:19:30.791Z,29.73
2019-02-21T05:24:32.347Z,30.97
2019-02-21T05:29:34.233Z,28.70
2019-02-21T05:34:35.857Z,31.63
2019-02-21T05:39:37.487Z,30.30
2019-02-21T05:44:41.056Z,30.57
2019-02-21T05:49:42.729Z,31.00
2019-02-21T05:54:44.280Z,32.27
2019-02-21T05:59:45.845Z,30.70
2019-02-21T06:04:47.759Z,29.27
2019-02-21T06:09:49.445Z,31.40
2019-02-21T06:14:54.532Z,34.13
2019-02-21T06:19:56.387Z,31.67
2019-02-21T06:24:57.984Z,33.80
2019-02-21T06:29:59.613Z,31.03
2019-02-21T06:35:02.881Z,32.63
2019-02-21T06:40:04.703Z,33.60
2019-02-21T06:45:06.414Z,34.43
2019-02-21T06:50:08.050Z,32.73
2019-02-21T06:55:10.009Z,35.10
2019-02-21T07:00:11.581Z,35.90
2019-02-21T07:05:13.210Z,35.57
2019-02-21T07:10:14.811Z,35.83
2019-02-21T07:15:16.362Z,37.50
2019-02-21T07:20:17.954Z,38.20
2019-02-21T07:25:19.612Z,36.87
2019-02-21T07:30:23.272Z,37.90
2019-02-21T07:35:24.643Z,37.47
2019-02-21T07:40:26.162Z,38.53
2019-02-21T07:45:31.567Z,40.17
2019-02-21T07:50:33.110Z,38.40
2019-02-21T07:55:34.820Z,40.07
2019-02-21T08:00:36.388Z,42.47
2019-02-21T08:05:38.329Z,41.57
2019-02-21T08:10:39.880Z,42.53
2019-02-21T08:15:41.533Z,42.60
2019-02-21T08:20:43.448Z,44.47
2019-02-21T08:25:45.024Z,43.13
2019-02-21T08:30:46.930Z,43.90
2019-02-21T08:35:48.503Z,43.60
2019-02-21T08:40:50.089Z,44.40
2019-02-21T08:45:51.611Z,45.27
2019-02-21T08:50:53.218Z,44.80
2019-02-21T08:55:56.054Z,46.67
2019-02-21T09:00:57.752Z,45.17
2019-02-21T09:05:59.292Z,45.77
2019-02-21T09:11:01.192Z,45.97
2019-02-21T09:16:04.289Z,44.93
2019-02-21T09:21:05.853Z,47.30
2019-02-21T09:26:07.475Z,44.63
2019-02-21T09:31:09.013Z,44.27
2019-02-21T09:36:10.577Z,40.87
2019-02-21T09:41:12.128Z,43.40
2019-02-21T09:46:13.678Z,43.27
2019-02-21T09:51:18.190Z,44.37
2019-02-21T09:56:29.480Z,42.27
2019-02-21T10:01:22.622Z,43.83
2019-02-21T10:06:24.151Z,45.43
2019-02-21T10:11:25.859Z,47.37
2019-02-21T10:16:27.372Z,45.53
2019-02-21T10:21:28.956Z,45.83
2019-02-21T10:26:30.853Z,45.27
2019-02-21T10:31:32.465Z,44.43
2019-02-21T10:36:34.027Z,45.77
2019-02-21T10:41:35.646Z,45.33
2019-02-21T10:46:37.221Z,44.63
2019-02-21T10:51:39.047Z,44.90
2019-02-21T10:56:40.638Z,42.93
2019-02-21T11:01:42.250Z,43.67
2019-02-21T11:06:44.278Z,44.00
2019-02-21T11:11:45.863Z,41.13
2019-02-21T11:16:47.702Z,42.97
2019-02-21T11:21:49.284Z,40.23
2019-02-21T11:26:50.901Z,39.00
2019-02-21T11:31:52.821Z,40.30
2019-02-21T11:36:54.929Z,38.77
2019-02-21T11:41:56.783Z,37.77
2019-02-21T11:46:58.385Z,37.13
2019-02-21T11:52:09.882Z,36.13
2019-02-21T11:57:04.019Z,37.30
2019-02-21T12:02:05.592Z,33.97
2019-02-21T12:07:07.166Z,33.77
2019-02-21T12:12:10.484Z,28.00
2019-02-21T12:17:12.191Z,27.57
2019-02-21T12:22:13.749Z,25.57
2019-02-21T12:27:15.264Z,22.63
2019-02-21T12:32:16.929Z,19.00
2019-02-21T12:37:18.495Z,18.87
2019-02-21T12:42:20.074Z,19.50
2019-02-21T12:47:21.673Z,17.73
2019-02-21T12:52:23.280Z,17.67
2019-02-21T12:57:24.791Z,18.80
2019-02-21T13:02:26.355Z,17.60
2019-02-21T13:07:27.858Z,16.80
2019-02-21T13:12:29.435Z,16.97
2019-02-21T13:17:31.098Z,16.90
2019-02-21T13:22:32.653Z,16.33
2019-02-21T13:27:35.804Z,17.50
2019-02-21T13:32:37.363Z,16.83
2019-02-21T13:37:38.917Z,16.20
2019-02-21T13:42:40.494Z,16.93
2019-02-21T13:47:42.084Z,16.80
2019-02-21T13:52:43.957Z,16.80
2019-02-21T13:57:46.017Z,16.97
2019-02-21T14:02:47.567Z,16.83
2019-02-21T14:07:49.091Z,15.67
2019-02-21T14:12:50.713Z,15.43
2019-02-21T14:17:52.304Z,16.50
2019-02-21T14:22:53.843Z,15.17
2019-02-21T14:27:55.425Z,11.53
2019-02-21T14:32:57.037Z,10.73
2019-02-21T14:37:58.665Z,11.70
2019-02-21T14:43:00.209Z,12.20
2019-02-21T14:48:01.769Z,11.60
2019-02-21T14:53:03.344Z,12.10
2019-02-21T14:58:05.929Z,13.40
2019-02-21T15:03:07.893Z,15.00
2019-02-21T15:08:09.465Z,15.27
2019-02-21T15:13:11.011Z,16.30
2019-02-21T15:18:13.131Z,18.97
2019-02-21T15:23:14.815Z,20.33
2019-02-21T15:28:16.432Z,19.60
2019-02-21T15:33:18.405Z,21.80
2019-02-21T15:38:20.383Z,22.27
2019-02-21T15:43:22.038Z,22.23
2019-02-21T15:48:23.592Z,24.17
2019-02-21T15:53:25.200Z,25.33
2019-02-21T15:58:27.320Z,28.57
2019-02-21T16:03:28.877Z,28.37
2019-02-21T16:08:31.141Z,31.03
2019-02-21T16:13:36.123Z,32.73
2019-02-21T16:18:38.192Z,34.73
2019-02-21T16:23:39.768Z,31.37
2019-02-21T16:28:41.735Z,30.87
2019-02-21T16:33:43.282Z,31.40
2019-02-21T16:38:44.905Z,30.33
2019-02-21T16:43:46.721Z,30.73
2019-02-21T16:48:49.008Z,30.70
2019-02-21T16:53:50.568Z,30.10
2019-02-21T16:58:52.356Z,33.13
2019-02-21T17:03:55.307Z,33.27
2019-02-21T17:08:56.900Z,32.83
2019-02-21T17:13:58.940Z,36.93
2019-02-21T17:19:04.854Z,40.17
2019-02-21T17:24:07.418Z,35.90
2019-02-21T17:29:09.276Z,36.73
2019-02-21T17:34:11.202Z,39.07
2019-02-21T17:39:13.686Z,36.87
2019-02-21T17:44:15.620Z,36.57
2019-02-21T17:49:17.804Z,34.53
2019-02-21T17:54:20.445Z,35.50
2019-02-21T17:59:22.181Z,35.20
2019-02-21T18:04:23.908Z,37.63
2019-02-21T18:09:25.633Z,34.73
2019-02-21T18:14:27.203Z,39.70
2019-02-21T18:19:28.915Z,35.17
2019-02-21T18:24:30.560Z,40.77
2019-02-21T18:29:32.245Z,39.67
2019-02-21T18:34:33.875Z,41.00
2019-02-21T18:39:36.098Z,41.73
2019-02-21T18:44:37.787Z,42.83
2019-02-21T18:49:39.985Z,42.70
2019-02-21T18:54:42.072Z,41.63
2019-02-21T18:59:43.730Z,46.03
2019-02-21T19:04:45.596Z,41.10
2019-02-21T19:09:47.691Z,43.27
2019-02-21T19:14:49.280Z,37.67
2019-02-21T19:19:50.936Z,38.93
2019-02-21T19:24:52.501Z,38.33
2019-02-21T19:29:54.100Z,37.63
2019-02-21T19:34:55.823Z,40.30
2019-02-21T19:39:57.518Z,38.57
2019-02-21T19:44:59.282Z,39.57
2019-02-21T19:50:01.225Z,39.57
2019-02-21T19:55:02.988Z,37.57
2019-02-21T20:00:06.401Z,39.10
2019-02-21T20:05:07.944Z,41.00
2019-02-21T20:10:09.700Z,40.33
2019-02-21T20:15:11.426Z,37.40
2019-02-21T20:20:14.101Z,41.53
2019-02-21T20:25:15.680Z,43.20
2019-02-21T20:30:17.249Z,42.87
2019-02-21T20:35:19.206Z,42.70
2019-02-21T20:40:20.837Z,46.10
2019-02-21T20:45:24.726Z,45.73
2019-02-21T20:50:26.426Z,43.43
2019-02-21T20:55:28.790Z,42.93
2019-02-21T21:00:30.430Z,42.43
2019-02-21T21:05:32.033Z,43.27
2019-02-21T21:10:33.584Z,41.77
2019-02-21T21:15:35.738Z,43.23
2019-02-21T21:20:37.292Z,41.23
2019-02-21T21:25:38.841Z,45.67
2019-02-21T21:30:40.556Z,43.40
2019-02-21T21:35:42.545Z,42.70
2019-02-21T21:40:44.132Z,41.60
2019-02-21T21:45:45.816Z,43.07
2019-02-21T21:50:47.780Z,42.23
2019-02-21T21:55:49.465Z,43.27
2019-02-21T22:00:51.173Z,43.70
2019-02-21T22:05:52.762Z,41.37
2019-02-21T22:10:54.358Z,46.43
2019-02-21T22:15:56.086Z,45.63
2019-02-21T22:20:57.639Z,43.27
2019-02-21T22:25:59.643Z,44.23
2019-02-21T22:31:01.201Z,45.97
2019-02-21T22:36:02.767Z,45.53
2019-02-21T22:41:04.383Z,43.10
2019-02-21T22:46:05.935Z,41.77
2019-02-21T22:51:07.813Z,45.87
2019-02-21T22:56:09.386Z,43.13
2019-02-21T23:01:35.179Z,43.63
2019-02-21T23:06:52.790Z,41.20
2019-02-21T23:11:54.319Z,43.70
2019-02-21T23:16:55.952Z,46.73
2019-02-21T23:21:57.691Z,43.90
2019-02-21T23:26:59.296Z,41.80
2019-02-21T23:32:03.168Z,41.53
2019-02-21T23:37:04.702Z,41.53
2019-02-21T23:42:06.427Z,39.57
2019-02-21T23:47:08.107Z,40.77
2019-02-21T23:52:09.786Z,42.30
2019-02-21T23:57:11.485Z,43.50
